sensor_id;sensor_type;location;lat;lon;timestamp;P1;durP1;ratioP1;P2;durP2;ratioP2
8177;SDS011;4130;48.740;9.132;2022-11-15T00:02:12;2.40;;;2.20;;
8177;SDS011;4130;48.740;9.132;2022-11-15T00:04:40;2.17;;;1.93;;
8177;SDS011;4130;48.740;9.132;2022-11-15T00:07:07;2.80;;;2.20;;
8177;SDS011;4130;48.740;9.132;2022-11-15T00:09:33;2.50;;;2.30;;
8177;SDS011;4130;48.740;9.132;2022-11-15T00:12:00;2.93;;;2.17;;
8177;SDS011;4130;48.740;9.132;2022-11-15T00:14:27;2.07;;;1.90;;
8177;SDS011;4130;48.740;9.132;2022-11-15T00:16:54;2.57;;;2.37;;
8177;SDS011;4130;48.740;9.132;2022-11-15T00:19:20;2.40;;;2.20;;
8177;SDS011;4130;48.740;9.132;2022-11-15T00:21:48;2.17;;;2.00;;
8177;SDS011;4130;48.740;9.132;2022-11-15T00:24:15;3.13;;;2.30;;
8177;SDS011;4130;48.740;9.132;2022-11-15T00:26:42;2.00;;;1.87;;
8177;SDS011;4130;48.740;9.132;2022-11-15T00:29:09;2.20;;;2.00;;
8177;SDS011;4130;48.740;9.132;2022-11-15T00:31:35;2.40;;;2.20;;
8177;SDS011;4130;48.740;9.132;2022-11-15T00:34:02;2.80;;;2.20;;
8177;SDS011;4130;48.740;9.132;2022-11-15T00:36:32;2.43;;;2.00;;
8177;SDS011;4130;48.740;9.132;2022-11-15T00:39:02;2.60;;;2.20;;
8177;SDS011;4130;48.740;9.132;2022-11-15T00:41:29;2.03;;;1.83;;
8177;SDS011;4130;48.740;9.132;2022-11-15T00:43:56;1.80;;;1.70;;
8177;SDS011;4130;48.740;9.132;2022-11-15T00:46:23;3.47;;;1.90;;
8177;SDS011;4130;48.740;9.132;2022-11-15T00:48:50;1.87;;;1.77;;
8177;SDS011;4130;48.740;9.132;2022-11-15T00:51:16;2.77;;;1.67;;
8177;SDS011;4130;48.740;9.132;2022-11-15T00:53:43;2.03;;;1.60;;
8177;SDS011;4130;48.740;9.132;2022-11-15T00:56:11;1.80;;;1.50;;
8177;SDS011;4130;48.740;9.132;2022-11-15T00:58:38;1.60;;;1.50;;
8177;SDS011;4130;48.740;9.132;2022-11-15T01:01:05;1.80;;;1.70;;
8177;SDS011;4130;48.740;9.132;2022-11-15T01:03:33;3.00;;;1.60;;
8177;SDS011;4130;48.740;9.132;2022-11-15T01:06:01;1.97;;;1.77;;
8177;SDS011;4130;48.740;9.132;2022-11-15T01:08:28;2.53;;;1.70;;
8177;SDS011;4130;48.740;9.132;2022-11-15T01:10:59;2.60;;;1.80;;
8177;SDS011;4130;48.740;9.132;2022-11-15T01:13:30;2.00;;;1.80;;
8177;SDS011;4130;48.740;9.132;2022-11-15T01:15:57;2.07;;;1.70;;
8177;SDS011;4130;48.740;9.132;2022-11-15T01:18:24;1.43;;;1.33;;
8177;SDS011;4130;48.740;9.132;2022-11-15T01:20:51;2.93;;;1.53;;
8177;SDS011;4130;48.740;9.132;2022-11-15T01:23:17;1.60;;;1.50;;
8177;SDS011;4130;48.740;9.132;2022-11-15T01:25:44;2.33;;;1.57;;
8177;SDS011;4130;48.740;9.132;2022-11-15T01:28:11;1.73;;;1.63;;
8177;SDS011;4130;48.740;9.132;2022-11-15T01:30:39;1.70;;;1.60;;
8177;SDS011;4130;48.740;9.132;2022-11-15T01:33:06;1.73;;;1.63;;
8177;SDS011;4130;48.740;9.132;2022-11-15T01:35:32;2.07;;;1.80;;
8177;SDS011;4130;48.740;9.132;2022-11-15T01:37:59;1.57;;;1.47;;
8177;SDS011;4130;48.740;9.132;2022-11-15T01:40:26;1.50;;;1.40;;
8177;SDS011;4130;48.740;9.132;2022-11-15T01:42:53;1.67;;;1.57;;
8177;SDS011;4130;48.740;9.132;2022-11-15T01:45:19;3.07;;;1.50;;
8177;SDS011;4130;48.740;9.132;2022-11-15T01:47:48;1.70;;;1.60;;
8177;SDS011;4130;48.740;9.132;2022-11-15T01:50:19;1.60;;;1.50;;
8177;SDS011;4130;48.740;9.132;2022-11-15T01:52:49;1.70;;;1.60;;
8177;SDS011;4130;48.740;9.132;2022-11-15T01:55:17;2.63;;;1.47;;
8177;SDS011;4130;48.740;9.132;2022-11-15T01:57:47;1.43;;;1.33;;
8177;SDS011;4130;48.740;9.132;2022-11-15T02:00:17;1.40;;;1.30;;
8177;SDS011;4130;48.740;9.132;2022-11-15T02:02:44;4.50;;;1.87;;
8177;SDS011;4130;48.740;9.132;2022-11-15T02:05:12;3.47;;;1.40;;
8177;SDS011;4130;48.740;9.132;2022-11-15T02:07:38;1.70;;;1.40;;
8177;SDS011;4130;48.740;9.132;2022-11-15T02:10:06;1.23;;;1.20;;
8177;SDS011;4130;48.740;9.132;2022-11-15T02:12:35;2.20;;;1.50;;
8177;SDS011;4130;48.740;9.132;2022-11-15T02:15:02;1.10;;;1.00;;
8177;SDS011;4130;48.740;9.132;2022-11-15T02:17:34;1.30;;;1.20;;
8177;SDS011;4130;48.740;9.132;2022-11-15T02:20:18;1.50;;;1.40;;
8177;SDS011;4130;48.740;9.132;2022-11-15T02:26:21;1.40;;;1.30;;
8177;SDS011;4130;48.740;9.132;2022-11-15T02:29:04;1.70;;;1.60;;
8177;SDS011;4130;48.740;9.132;2022-11-15T02:31:38;1.33;;;1.23;;
8177;SDS011;4130;48.740;9.132;2022-11-15T02:34:14;1.27;;;1.20;;
8177;SDS011;4130;48.740;9.132;2022-11-15T02:36:49;1.20;;;1.10;;
8177;SDS011;4130;48.740;9.132;2022-11-15T02:39:25;1.30;;;1.20;;
8177;SDS011;4130;48.740;9.132;2022-11-15T02:41:58;3.33;;;1.20;;
8177;SDS011;4130;48.740;9.132;2022-11-15T02:44:30;1.40;;;1.30;;
8177;SDS011;4130;48.740;9.132;2022-11-15T02:47:03;1.20;;;1.10;;
8177;SDS011;4130;48.740;9.132;2022-11-15T02:49:39;1.40;;;1.30;;
8177;SDS011;4130;48.740;9.132;2022-11-15T02:52:07;1.10;;;1.10;;
8177;SDS011;4130;48.740;9.132;2022-11-15T02:54:34;1.30;;;1.20;;
8177;SDS011;4130;48.740;9.132;2022-11-15T02:57:01;1.53;;;1.43;;
8177;SDS011;4130;48.740;9.132;2022-11-15T02:59:37;1.47;;;1.37;;
8177;SDS011;4130;48.740;9.132;2022-11-15T03:02:27;1.60;;;1.50;;
8177;SDS011;4130;48.740;9.132;2022-11-15T03:05:09;1.40;;;1.30;;
8177;SDS011;4130;48.740;9.132;2022-11-15T03:07:44;1.20;;;1.20;;
8177;SDS011;4130;48.740;9.132;2022-11-15T03:10:18;2.03;;;1.50;;
8177;SDS011;4130;48.740;9.132;2022-11-15T03:12:51;1.57;;;1.47;;
8177;SDS011;4130;48.740;9.132;2022-11-15T03:15:23;1.87;;;1.60;;
8177;SDS011;4130;48.740;9.132;2022-11-15T03:17:57;1.70;;;1.30;;
8177;SDS011;4130;48.740;9.132;2022-11-15T03:20:26;1.40;;;1.30;;
8177;SDS011;4130;48.740;9.132;2022-11-15T03:22:55;2.53;;;1.40;;
8177;SDS011;4130;48.740;9.132;2022-11-15T03:28:17;1.50;;;1.40;;
8177;SDS011;4130;48.740;9.132;2022-11-15T03:30:48;1.47;;;1.37;;
8177;SDS011;4130;48.740;9.132;2022-11-15T03:33:19;1.90;;;1.50;;
8177;SDS011;4130;48.740;9.132;2022-11-15T03:35:47;1.50;;;1.40;;
8177;SDS011;4130;48.740;9.132;2022-11-15T03:38:17;1.53;;;1.43;;
8177;SDS011;4130;48.740;9.132;2022-11-15T03:40:49;1.43;;;1.33;;
8177;SDS011;4130;48.740;9.132;2022-11-15T03:43:22;1.70;;;1.60;;
8177;SDS011;4130;48.740;9.132;2022-11-15T03:45:56;1.60;;;1.50;;
8177;SDS011;4130;48.740;9.132;2022-11-15T03:48:29;1.63;;;1.50;;
8177;SDS011;4130;48.740;9.132;2022-11-15T03:51:00;1.80;;;1.70;;
8177;SDS011;4130;48.740;9.132;2022-11-15T03:53:28;2.33;;;1.53;;
8177;SDS011;4130;48.740;9.132;2022-11-15T03:55:55;3.30;;;1.67;;
8177;SDS011;4130;48.740;9.132;2022-11-15T03:58:22;1.83;;;1.63;;
8177;SDS011;4130;48.740;9.132;2022-11-15T04:00:49;2.23;;;2.03;;
8177;SDS011;4130;48.740;9.132;2022-11-15T04:03:16;1.83;;;1.50;;
8177;SDS011;4130;48.740;9.132;2022-11-15T04:05:44;1.63;;;1.53;;
8177;SDS011;4130;48.740;9.132;2022-11-15T04:08:10;1.50;;;1.40;;
8177;SDS011;4130;48.740;9.132;2022-11-15T04:10:37;1.90;;;1.70;;
8177;SDS011;4130;48.740;9.132;2022-11-15T04:13:04;1.60;;;1.50;;
8177;SDS011;4130;48.740;9.132;2022-11-15T04:15:31;1.70;;;1.57;;
8177;SDS011;4130;48.740;9.132;2022-11-15T04:17:57;1.50;;;1.40;;
8177;SDS011;4130;48.740;9.132;2022-11-15T04:20:25;2.63;;;1.43;;
8177;SDS011;4130;48.740;9.132;2022-11-15T04:23:13;1.83;;;1.73;;
8177;SDS011;4130;48.740;9.132;2022-11-15T04:25:59;3.10;;;1.87;;
8177;SDS011;4130;48.740;9.132;2022-11-15T04:28:28;2.23;;;1.80;;
8177;SDS011;4130;48.740;9.132;2022-11-15T04:30:55;1.63;;;1.53;;
8177;SDS011;4130;48.740;9.132;2022-11-15T04:33:22;1.63;;;1.53;;
8177;SDS011;4130;48.740;9.132;2022-11-15T04:35:49;1.70;;;1.60;;
8177;SDS011;4130;48.740;9.132;2022-11-15T04:38:32;1.60;;;1.50;;
8177;SDS011;4130;48.740;9.132;2022-11-15T04:40:59;3.67;;;1.20;;
8177;SDS011;4130;48.740;9.132;2022-11-15T04:43:26;1.70;;;1.60;;
8177;SDS011;4130;48.740;9.132;2022-11-15T04:45:53;1.70;;;1.60;;
8177;SDS011;4130;48.740;9.132;2022-11-15T04:48:19;1.53;;;1.43;;
8177;SDS011;4130;48.740;9.132;2022-11-15T04:50:47;1.70;;;1.60;;
8177;SDS011;4130;48.740;9.132;2022-11-15T04:53:14;1.43;;;1.33;;
8177;SDS011;4130;48.740;9.132;2022-11-15T04:55:45;1.60;;;1.50;;
8177;SDS011;4130;48.740;9.132;2022-11-15T04:58:11;1.63;;;1.53;;
8177;SDS011;4130;48.740;9.132;2022-11-15T05:00:38;1.50;;;1.40;;
8177;SDS011;4130;48.740;9.132;2022-11-15T05:03:05;1.33;;;1.23;;
8177;SDS011;4130;48.740;9.132;2022-11-15T05:05:50;1.40;;;1.30;;
8177;SDS011;4130;48.740;9.132;2022-11-15T05:08:17;1.50;;;1.40;;
8177;SDS011;4130;48.740;9.132;2022-11-15T05:10:45;2.30;;;1.30;;
8177;SDS011;4130;48.740;9.132;2022-11-15T05:13:13;1.50;;;1.40;;
8177;SDS011;4130;48.740;9.132;2022-11-15T05:15:40;2.00;;;1.50;;
8177;SDS011;4130;48.740;9.132;2022-11-15T05:18:07;1.27;;;1.23;;
8177;SDS011;4130;48.740;9.132;2022-11-15T05:20:33;2.20;;;1.30;;
8177;SDS011;4130;48.740;9.132;2022-11-15T05:23:00;1.40;;;1.30;;
8177;SDS011;4130;48.740;9.132;2022-11-15T05:25:27;1.93;;;1.40;;
8177;SDS011;4130;48.740;9.132;2022-11-15T05:27:55;1.60;;;1.47;;
8177;SDS011;4130;48.740;9.132;2022-11-15T05:30:22;1.50;;;1.40;;
8177;SDS011;4130;48.740;9.132;2022-11-15T05:32:49;2.00;;;1.43;;
8177;SDS011;4130;48.740;9.132;2022-11-15T05:35:18;1.43;;;1.33;;
8177;SDS011;4130;48.740;9.132;2022-11-15T05:37:52;1.40;;;1.30;;
8177;SDS011;4130;48.740;9.132;2022-11-15T05:40:18;1.40;;;1.30;;
8177;SDS011;4130;48.740;9.132;2022-11-15T05:42:45;1.37;;;1.27;;
8177;SDS011;4130;48.740;9.132;2022-11-15T05:45:14;1.73;;;1.40;;
8177;SDS011;4130;48.740;9.132;2022-11-15T05:47:41;2.30;;;1.67;;
8177;SDS011;4130;48.740;9.132;2022-11-15T05:50:10;1.80;;;1.60;;
8177;SDS011;4130;48.740;9.132;2022-11-15T05:52:38;2.60;;;2.00;;
8177;SDS011;4130;48.740;9.132;2022-11-15T05:55:05;5.83;;;3.50;;
8177;SDS011;4130;48.740;9.132;2022-11-15T05:57:34;3.00;;;2.60;;
8177;SDS011;4130;48.740;9.132;2022-11-15T06:00:02;2.03;;;1.90;;
8177;SDS011;4130;48.740;9.132;2022-11-15T06:02:31;6.87;;;1.93;;
8177;SDS011;4130;48.740;9.132;2022-11-15T06:04:58;2.83;;;2.07;;
8177;SDS011;4130;48.740;9.132;2022-11-15T06:07:25;1.83;;;1.73;;
8177;SDS011;4130;48.740;9.132;2022-11-15T06:09:51;2.40;;;2.03;;
8177;SDS011;4130;48.740;9.132;2022-11-15T06:12:18;2.50;;;1.97;;
8177;SDS011;4130;48.740;9.132;2022-11-15T06:14:45;2.63;;;1.43;;
8177;SDS011;4130;48.740;9.132;2022-11-15T06:17:12;2.60;;;1.70;;
8177;SDS011;4130;48.740;9.132;2022-11-15T06:19:40;3.43;;;1.60;;
8177;SDS011;4130;48.740;9.132;2022-11-15T06:22:06;1.77;;;1.63;;
8177;SDS011;4130;48.740;9.132;2022-11-15T06:24:34;1.77;;;1.67;;
8177;SDS011;4130;48.740;9.132;2022-11-15T06:27:01;1.50;;;1.40;;
8177;SDS011;4130;48.740;9.132;2022-11-15T06:29:27;1.87;;;1.60;;
8177;SDS011;4130;48.740;9.132;2022-11-15T06:31:54;2.20;;;2.03;;
8177;SDS011;4130;48.740;9.132;2022-11-15T06:34:21;2.00;;;1.80;;
8177;SDS011;4130;48.740;9.132;2022-11-15T06:36:49;3.40;;;2.40;;
8177;SDS011;4130;48.740;9.132;2022-11-15T06:39:16;2.57;;;2.37;;
8177;SDS011;4130;48.740;9.132;2022-11-15T06:41:42;2.10;;;1.90;;
8177;SDS011;4130;48.740;9.132;2022-11-15T06:44:09;1.97;;;1.83;;
8177;SDS011;4130;48.740;9.132;2022-11-15T06:46:36;2.23;;;1.63;;
8177;SDS011;4130;48.740;9.132;2022-11-15T06:49:03;1.80;;;1.70;;
8177;SDS011;4130;48.740;9.132;2022-11-15T06:51:29;1.77;;;1.67;;
8177;SDS011;4130;48.740;9.132;2022-11-15T06:53:58;2.10;;;1.90;;
8177;SDS011;4130;48.740;9.132;2022-11-15T06:56:24;2.17;;;1.93;;
8177;SDS011;4130;48.740;9.132;2022-11-15T06:58:51;2.00;;;1.80;;
8177;SDS011;4130;48.740;9.132;2022-11-15T07:01:18;2.57;;;1.97;;
8177;SDS011;4130;48.740;9.132;2022-11-15T07:03:45;2.40;;;2.20;;
8177;SDS011;4130;48.740;9.132;2022-11-15T07:06:11;2.33;;;2.10;;
8177;SDS011;4130;48.740;9.132;2022-11-15T07:08:38;3.17;;;2.17;;
8177;SDS011;4130;48.740;9.132;2022-11-15T07:11:08;3.33;;;2.20;;
8177;SDS011;4130;48.740;9.132;2022-11-15T07:13:35;3.13;;;2.33;;
8177;SDS011;4130;48.740;9.132;2022-11-15T07:16:03;10.87;;;2.70;;
8177;SDS011;4130;48.740;9.132;2022-11-15T07:18:30;6.17;;;2.43;;
8177;SDS011;4130;48.740;9.132;2022-11-15T07:21:00;2.77;;;2.33;;
8177;SDS011;4130;48.740;9.132;2022-11-15T07:23:27;2.90;;;2.40;;
8177;SDS011;4130;48.740;9.132;2022-11-15T07:25:56;3.73;;;2.90;;
8177;SDS011;4130;48.740;9.132;2022-11-15T07:28:25;3.77;;;2.53;;
8177;SDS011;4130;48.740;9.132;2022-11-15T07:30:53;2.53;;;2.33;;
8177;SDS011;4130;48.740;9.132;2022-11-15T07:33:20;4.83;;;3.10;;
8177;SDS011;4130;48.740;9.132;2022-11-15T07:35:47;3.03;;;2.40;;
8177;SDS011;4130;48.740;9.132;2022-11-15T07:38:14;3.27;;;2.50;;
8177;SDS011;4130;48.740;9.132;2022-11-15T07:40:44;2.50;;;2.30;;
8177;SDS011;4130;48.740;9.132;2022-11-15T07:43:11;3.30;;;2.50;;
8177;SDS011;4130;48.740;9.132;2022-11-15T07:45:41;2.87;;;2.40;;
8177;SDS011;4130;48.740;9.132;2022-11-15T07:48:09;3.67;;;2.63;;
8177;SDS011;4130;48.740;9.132;2022-11-15T07:50:36;3.93;;;2.80;;
8177;SDS011;4130;48.740;9.132;2022-11-15T07:53:02;4.60;;;3.10;;
8177;SDS011;4130;48.740;9.132;2022-11-15T07:55:29;3.57;;;2.73;;
8177;SDS011;4130;48.740;9.132;2022-11-15T07:57:59;4.03;;;2.70;;
8177;SDS011;4130;48.740;9.132;2022-11-15T08:00:27;3.27;;;2.97;;
8177;SDS011;4130;48.740;9.132;2022-11-15T08:03:02;3.17;;;2.57;;
8177;SDS011;4130;48.740;9.132;2022-11-15T08:05:29;4.67;;;3.40;;
8177;SDS011;4130;48.740;9.132;2022-11-15T08:07:56;4.47;;;3.23;;
8177;SDS011;4130;48.740;9.132;2022-11-15T08:10:23;3.50;;;3.13;;
8177;SDS011;4130;48.740;9.132;2022-11-15T08:12:56;3.77;;;3.30;;
8177;SDS011;4130;48.740;9.132;2022-11-15T08:15:23;4.87;;;3.20;;
8177;SDS011;4130;48.740;9.132;2022-11-15T08:17:53;5.30;;;2.93;;
8177;SDS011;4130;48.740;9.132;2022-11-15T08:20:21;6.10;;;2.80;;
8177;SDS011;4130;48.740;9.132;2022-11-15T08:22:49;5.33;;;2.50;;
8177;SDS011;4130;48.740;9.132;2022-11-15T08:25:15;4.97;;;2.77;;
8177;SDS011;4130;48.740;9.132;2022-11-15T08:27:43;7.10;;;2.70;;
8177;SDS011;4130;48.740;9.132;2022-11-15T08:30:10;5.40;;;2.70;;
8177;SDS011;4130;48.740;9.132;2022-11-15T08:32:38;3.80;;;2.40;;
8177;SDS011;4130;48.740;9.132;2022-11-15T08:35:05;2.93;;;2.27;;
8177;SDS011;4130;48.740;9.132;2022-11-15T08:37:34;4.70;;;2.30;;
8177;SDS011;4130;48.740;9.132;2022-11-15T08:40:01;2.70;;;2.30;;
8177;SDS011;4130;48.740;9.132;2022-11-15T08:42:29;2.43;;;2.17;;
8177;SDS011;4130;48.740;9.132;2022-11-15T08:44:56;5.23;;;2.00;;
8177;SDS011;4130;48.740;9.132;2022-11-15T08:47:23;2.70;;;2.30;;
8177;SDS011;4130;48.740;9.132;2022-11-15T08:49:50;2.43;;;2.23;;
8177;SDS011;4130;48.740;9.132;2022-11-15T08:52:16;3.47;;;2.40;;
8177;SDS011;4130;48.740;9.132;2022-11-15T08:54:45;2.50;;;2.20;;
8177;SDS011;4130;48.740;9.132;2022-11-15T08:57:11;2.50;;;2.03;;
8177;SDS011;4130;48.740;9.132;2022-11-15T08:59:38;3.83;;;2.47;;
8177;SDS011;4130;48.740;9.132;2022-11-15T09:02:05;3.20;;;2.40;;
8177;SDS011;4130;48.740;9.132;2022-11-15T09:04:32;2.40;;;2.20;;
8177;SDS011;4130;48.740;9.132;2022-11-15T09:06:58;2.53;;;2.30;;
8177;SDS011;4130;48.740;9.132;2022-11-15T09:09:25;1.87;;;1.73;;
8177;SDS011;4130;48.740;9.132;2022-11-15T09:11:53;2.47;;;2.27;;
8177;SDS011;4130;48.740;9.132;2022-11-15T09:14:20;2.40;;;2.20;;
8177;SDS011;4130;48.740;9.132;2022-11-15T09:16:47;4.33;;;2.30;;
8177;SDS011;4130;48.740;9.132;2022-11-15T09:19:13;3.13;;;2.17;;
8177;SDS011;4130;48.740;9.132;2022-11-15T09:21:40;4.50;;;2.23;;
8177;SDS011;4130;48.740;9.132;2022-11-15T09:24:07;2.30;;;1.70;;
8177;SDS011;4130;48.740;9.132;2022-11-15T09:26:34;2.00;;;1.80;;
8177;SDS011;4130;48.740;9.132;2022-11-15T09:29:02;1.90;;;1.70;;
8177;SDS011;4130;48.740;9.132;2022-11-15T09:31:29;2.63;;;2.33;;
8177;SDS011;4130;48.740;9.132;2022-11-15T09:33:56;3.73;;;1.97;;
8177;SDS011;4130;48.740;9.132;2022-11-15T09:36:23;2.20;;;1.53;;
8177;SDS011;4130;48.740;9.132;2022-11-15T09:38:49;2.47;;;1.83;;
8177;SDS011;4130;48.740;9.132;2022-11-15T09:41:29;1.70;;;1.60;;
8177;SDS011;4130;48.740;9.132;2022-11-15T09:44:12;2.80;;;1.73;;
8177;SDS011;4130;48.740;9.132;2022-11-15T09:46:52;3.17;;;1.70;;
8177;SDS011;4130;48.740;9.132;2022-11-15T09:49:24;1.60;;;1.50;;
8177;SDS011;4130;48.740;9.132;2022-11-15T09:51:53;2.77;;;1.60;;
8177;SDS011;4130;48.740;9.132;2022-11-15T09:54:23;2.75;;;1.58;;
8177;SDS011;4130;48.740;9.132;2022-11-15T09:57:02;1.50;;;1.40;;
8177;SDS011;4130;48.740;9.132;2022-11-15T09:59:37;2.35;;;1.67;;
8177;SDS011;4130;48.740;9.132;2022-11-15T10:02:17;2.92;;;1.58;;
8177;SDS011;4130;48.740;9.132;2022-11-15T10:04:56;2.05;;;1.50;;
8177;SDS011;4130;48.740;9.132;2022-11-15T10:07:25;2.97;;;1.52;;
8177;SDS011;4130;48.740;9.132;2022-11-15T10:09:59;2.53;;;1.60;;
8177;SDS011;4130;48.740;9.132;2022-11-15T10:12:34;1.45;;;1.30;;
8177;SDS011;4130;48.740;9.132;2022-11-15T10:15:03;1.48;;;1.38;;
8177;SDS011;4130;48.740;9.132;2022-11-15T10:17:40;2.28;;;1.50;;
8177;SDS011;4130;48.740;9.132;2022-11-15T10:20:34;2.20;;;1.40;;
8177;SDS011;4130;48.740;9.132;2022-11-15T10:23:11;1.67;;;1.58;;
8177;SDS011;4130;48.740;9.132;2022-11-15T10:25:40;2.58;;;1.38;;
8177;SDS011;4130;48.740;9.132;2022-11-15T10:28:10;2.45;;;1.40;;
8177;SDS011;4130;48.740;9.132;2022-11-15T10:30:43;1.92;;;1.40;;
8177;SDS011;4130;48.740;9.132;2022-11-15T10:33:12;1.40;;;1.30;;
8177;SDS011;4130;48.740;9.132;2022-11-15T10:35:48;2.28;;;1.70;;
8177;SDS011;4130;48.740;9.132;2022-11-15T10:38:43;1.55;;;1.45;;
8177;SDS011;4130;48.740;9.132;2022-11-15T10:41:19;1.40;;;1.30;;
8177;SDS011;4130;48.740;9.132;2022-11-15T10:44:02;2.20;;;1.52;;
8177;SDS011;4130;48.740;9.132;2022-11-15T10:47:05;2.33;;;1.40;;
8177;SDS011;4130;48.740;9.132;2022-11-15T10:49:52;1.88;;;1.52;;
8177;SDS011;4130;48.740;9.132;2022-11-15T10:52:21;2.70;;;1.50;;
8177;SDS011;4130;48.740;9.132;2022-11-15T10:54:49;2.65;;;1.23;;
8177;SDS011;4130;48.740;9.132;2022-11-15T10:57:20;1.55;;;1.42;;
8177;SDS011;4130;48.740;9.132;2022-11-15T10:59:50;1.40;;;1.30;;
8177;SDS011;4130;48.740;9.132;2022-11-15T11:02:30;2.40;;;1.50;;
8177;SDS011;4130;48.740;9.132;2022-11-15T11:05:00;1.70;;;1.30;;
8177;SDS011;4130;48.740;9.132;2022-11-15T11:07:28;1.75;;;1.50;;
8177;SDS011;4130;48.740;9.132;2022-11-15T11:09:57;1.75;;;1.52;;
8177;SDS011;4130;48.740;9.132;2022-11-15T11:12:29;3.60;;;1.40;;
8177;SDS011;4130;48.740;9.132;2022-11-15T11:14:57;1.85;;;1.25;;
8177;SDS011;4130;48.740;9.132;2022-11-15T11:17:29;2.88;;;1.50;;
8177;SDS011;4130;48.740;9.132;2022-11-15T11:20:10;1.30;;;1.20;;
8177;SDS011;4130;48.740;9.132;2022-11-15T11:22:47;2.08;;;1.20;;
8177;SDS011;4130;48.740;9.132;2022-11-15T11:25:29;1.42;;;1.30;;
8177;SDS011;4130;48.740;9.132;2022-11-15T11:28:14;1.42;;;1.33;;
8177;SDS011;4130;48.740;9.132;2022-11-15T11:30:57;5.05;;;1.83;;
8177;SDS011;4130;48.740;9.132;2022-11-15T11:33:36;1.73;;;1.38;;
8177;SDS011;4130;48.740;9.132;2022-11-15T11:36:15;1.85;;;1.48;;
8177;SDS011;4130;48.740;9.132;2022-11-15T11:38:50;1.75;;;1.55;;
8177;SDS011;4130;48.740;9.132;2022-11-15T11:41:27;1.90;;;1.60;;
8177;SDS011;4130;48.740;9.132;2022-11-15T11:44:15;4.35;;;1.27;;
8177;SDS011;4130;48.740;9.132;2022-11-15T11:46:55;2.75;;;1.60;;
8177;SDS011;4130;48.740;9.132;2022-11-15T11:49:29;3.15;;;1.60;;
8177;SDS011;4130;48.740;9.132;2022-11-15T11:52:02;2.47;;;1.60;;
8177;SDS011;4130;48.740;9.132;2022-11-15T11:54:42;2.60;;;1.20;;
8177;SDS011;4130;48.740;9.132;2022-11-15T11:57:21;4.22;;;1.40;;
8177;SDS011;4130;48.740;9.132;2022-11-15T11:59:55;2.05;;;1.40;;
8177;SDS011;4130;48.740;9.132;2022-11-15T12:02:28;6.13;;;1.23;;
8177;SDS011;4130;48.740;9.132;2022-11-15T12:05:03;2.03;;;1.38;;
8177;SDS011;4130;48.740;9.132;2022-11-15T12:07:35;1.50;;;1.40;;
8177;SDS011;4130;48.740;9.132;2022-11-15T12:10:11;1.23;;;1.13;;
8177;SDS011;4130;48.740;9.132;2022-11-15T12:12:44;1.20;;;1.10;;
8177;SDS011;4130;48.740;9.132;2022-11-15T12:15:18;1.23;;;1.13;;
8177;SDS011;4130;48.740;9.132;2022-11-15T12:17:48;1.30;;;1.20;;
8177;SDS011;4130;48.740;9.132;2022-11-15T12:20:17;1.33;;;1.23;;
8177;SDS011;4130;48.740;9.132;2022-11-15T12:22:47;3.22;;;1.48;;
8177;SDS011;4130;48.740;9.132;2022-11-15T12:25:20;1.98;;;1.20;;
8177;SDS011;4130;48.740;9.132;2022-11-15T12:27:50;1.40;;;1.30;;
8177;SDS011;4130;48.740;9.132;2022-11-15T12:30:19;1.52;;;1.42;;
8177;SDS011;4130;48.740;9.132;2022-11-15T12:32:51;1.60;;;1.50;;
8177;SDS011;4130;48.740;9.132;2022-11-15T12:35:25;1.33;;;1.23;;
8177;SDS011;4130;48.740;9.132;2022-11-15T12:37:59;1.90;;;1.58;;
8177;SDS011;4130;48.740;9.132;2022-11-15T12:40:27;1.40;;;1.30;;
8177;SDS011;4130;48.740;9.132;2022-11-15T12:43:00;1.70;;;1.40;;
8177;SDS011;4130;48.740;9.132;2022-11-15T12:45:45;3.63;;;1.60;;
8177;SDS011;4130;48.740;9.132;2022-11-15T12:51:17;2.22;;;1.30;;
8177;SDS011;4130;48.740;9.132;2022-11-15T12:53:46;1.77;;;1.15;;
8177;SDS011;4130;48.740;9.132;2022-11-15T12:58:57;1.83;;;1.60;;
8177;SDS011;4130;48.740;9.132;2022-11-15T13:04:28;2.42;;;1.73;;
8177;SDS011;4130;48.740;9.132;2022-11-15T13:06:59;3.00;;;2.50;;
8177;SDS011;4130;48.740;9.132;2022-11-15T13:09:50;4.28;;;2.10;;
8177;SDS011;4130;48.740;9.132;2022-11-15T13:15:43;10.13;;;2.40;;
8177;SDS011;4130;48.740;9.132;2022-11-15T13:18:25;6.40;;;2.58;;
8177;SDS011;4130;48.740;9.132;2022-11-15T13:21:01;5.10;;;2.70;;
8177;SDS011;4130;48.740;9.132;2022-11-15T13:23:52;5.63;;;2.70;;
8177;SDS011;4130;48.740;9.132;2022-11-15T13:26:20;7.55;;;2.63;;
8177;SDS011;4130;48.740;9.132;2022-11-15T13:28:48;6.55;;;2.75;;
8177;SDS011;4130;48.740;9.132;2022-11-15T13:31:22;5.15;;;2.60;;
8177;SDS011;4130;48.740;9.132;2022-11-15T13:33:56;4.63;;;2.78;;
8177;SDS011;4130;48.740;9.132;2022-11-15T13:36:27;5.88;;;2.38;;
8177;SDS011;4130;48.740;9.132;2022-11-15T13:38:58;3.70;;;2.47;;
8177;SDS011;4130;48.740;9.132;2022-11-15T13:41:27;3.75;;;2.45;;
8177;SDS011;4130;48.740;9.132;2022-11-15T13:43:56;3.35;;;2.42;;
8177;SDS011;4130;48.740;9.132;2022-11-15T13:46:25;3.38;;;2.40;;
8177;SDS011;4130;48.740;9.132;2022-11-15T13:48:54;6.25;;;2.17;;
8177;SDS011;4130;48.740;9.132;2022-11-15T13:51:28;2.72;;;2.15;;
8177;SDS011;4130;48.740;9.132;2022-11-15T13:54:23;3.10;;;2.38;;
8177;SDS011;4130;48.740;9.132;2022-11-15T13:56:55;5.15;;;2.97;;
8177;SDS011;4130;48.740;9.132;2022-11-15T13:59:26;3.25;;;2.78;;
8177;SDS011;4130;48.740;9.132;2022-11-15T14:01:56;3.88;;;2.53;;
8177;SDS011;4130;48.740;9.132;2022-11-15T14:04:26;3.40;;;2.20;;
8177;SDS011;4130;48.740;9.132;2022-11-15T14:06:58;6.00;;;2.53;;
8177;SDS011;4130;48.740;9.132;2022-11-15T14:09:35;5.57;;;3.10;;
8177;SDS011;4130;48.740;9.132;2022-11-15T14:12:21;3.83;;;2.50;;
8177;SDS011;4130;48.740;9.132;2022-11-15T14:14:50;3.53;;;2.50;;
8177;SDS011;4130;48.740;9.132;2022-11-15T14:17:19;4.70;;;2.50;;
8177;SDS011;4130;48.740;9.132;2022-11-15T14:19:49;3.93;;;3.00;;
8177;SDS011;4130;48.740;9.132;2022-11-15T14:22:18;3.07;;;2.40;;
8177;SDS011;4130;48.740;9.132;2022-11-15T14:25:04;4.57;;;2.80;;
8177;SDS011;4130;48.740;9.132;2022-11-15T14:27:39;4.50;;;2.90;;
8177;SDS011;4130;48.740;9.132;2022-11-15T14:30:09;5.30;;;2.73;;
8177;SDS011;4130;48.740;9.132;2022-11-15T14:32:48;2.93;;;2.60;;
8177;SDS011;4130;48.740;9.132;2022-11-15T14:35:17;3.77;;;2.80;;
8177;SDS011;4130;48.740;9.132;2022-11-15T14:37:46;3.43;;;2.83;;
8177;SDS011;4130;48.740;9.132;2022-11-15T14:40:16;2.73;;;2.27;;
8177;SDS011;4130;48.740;9.132;2022-11-15T14:42:46;6.97;;;3.60;;
8177;SDS011;4130;48.740;9.132;2022-11-15T14:45:17;5.50;;;2.97;;
8177;SDS011;4130;48.740;9.132;2022-11-15T14:47:45;5.37;;;3.20;;
8177;SDS011;4130;48.740;9.132;2022-11-15T14:50:13;5.80;;;3.00;;
8177;SDS011;4130;48.740;9.132;2022-11-15T14:52:41;5.27;;;2.90;;
8177;SDS011;4130;48.740;9.132;2022-11-15T14:55:13;6.20;;;3.10;;
8177;SDS011;4130;48.740;9.132;2022-11-15T14:57:45;5.43;;;2.63;;
8177;SDS011;4130;48.740;9.132;2022-11-15T15:00:12;6.50;;;3.37;;
8177;SDS011;4130;48.740;9.132;2022-11-15T15:02:40;6.13;;;3.20;;
8177;SDS011;4130;48.740;9.132;2022-11-15T15:05:16;3.67;;;2.60;;
8177;SDS011;4130;48.740;9.132;2022-11-15T15:07:45;5.10;;;2.90;;
8177;SDS011;4130;48.740;9.132;2022-11-15T15:10:12;5.30;;;2.70;;
8177;SDS011;4130;48.740;9.132;2022-11-15T15:12:42;3.93;;;2.70;;
8177;SDS011;4130;48.740;9.132;2022-11-15T15:15:12;4.63;;;2.73;;
8177;SDS011;4130;48.740;9.132;2022-11-15T15:17:42;2.93;;;2.50;;
8177;SDS011;4130;48.740;9.132;2022-11-15T15:20:10;3.80;;;2.67;;
8177;SDS011;4130;48.740;9.132;2022-11-15T15:22:39;3.87;;;2.70;;
8177;SDS011;4130;48.740;9.132;2022-11-15T15:25:19;3.13;;;2.60;;
8177;SDS011;4130;48.740;9.132;2022-11-15T15:27:50;3.07;;;2.73;;
8177;SDS011;4130;48.740;9.132;2022-11-15T15:30:17;3.47;;;2.40;;
8177;SDS011;4130;48.740;9.132;2022-11-15T15:32:46;4.10;;;2.50;;
8177;SDS011;4130;48.740;9.132;2022-11-15T15:35:15;3.37;;;2.60;;
8177;SDS011;4130;48.740;9.132;2022-11-15T15:37:44;3.50;;;2.60;;
8177;SDS011;4130;48.740;9.132;2022-11-15T15:40:20;4.03;;;2.90;;
8177;SDS011;4130;48.740;9.132;2022-11-15T15:42:56;3.83;;;2.80;;
8177;SDS011;4130;48.740;9.132;2022-11-15T15:45:26;4.20;;;3.57;;
8177;SDS011;4130;48.740;9.132;2022-11-15T15:47:56;5.70;;;3.80;;
8177;SDS011;4130;48.740;9.132;2022-11-15T15:50:44;4.77;;;3.07;;
8177;SDS011;4130;48.740;9.132;2022-11-15T15:56:36;4.77;;;2.97;;
8177;SDS011;4130;48.740;9.132;2022-11-15T15:59:05;4.23;;;3.10;;